aviador You're here:

KCQX Decoded Metar

CHATHAM in MA, USA
Report Time2017-08-16 18:52:00
UTC Time2017-08-16 19:32:41
Flight Rules vfr VFR
WindVRB at 06 kt
Visibility9999 m
Phenomena:N/A
Clouds:N/A
Expected CloudBase > 4,400 ft AGL from Temp-Dew spread
CeilingNone
Temp27°C (ISA +12)
Dew Point16°C (51% RH)
Heat Index27.5°C
AAT26.8°C
QNH1013 hPa
Density Alt1,703 ft
Elevation62 ft
Report Wrong Elevation
Raw Report
KCQX 161852Z AUTO VRB06KT 10SM CLR 27/16 A2992 RMK AO2 SLP133
T02670161=

Extra information for KCQX:More info

Metar Taf Metar & Taf Last 4 Metars F.Rules Stats Wind Profile Meteogram Temp Stats Airport Information Weather charts Add Link Nearby VenuesMetar ALERT Operation Metar Decoded Social comments

AIRNAV info for KCQX